createdAt,value
2023-04-16T00:04:09.721Z,2.00
2023-04-16T00:06:38.993Z,1.85
2023-04-16T00:09:05.962Z,2.08
2023-04-16T00:11:33.260Z,1.88
2023-04-16T00:14:00.390Z,1.88
2023-04-16T00:16:27.908Z,1.80
2023-04-16T00:18:54.932Z,2.00
2023-04-16T00:21:22.177Z,1.83
2023-04-16T00:23:50.685Z,1.70
2023-04-16T00:26:18.091Z,1.85
2023-04-16T00:28:44.936Z,1.90
2023-04-16T00:31:12.253Z,1.88
2023-04-16T00:33:39.621Z,1.90
2023-04-16T00:36:07.498Z,1.90
2023-04-16T00:38:34.443Z,1.85
2023-04-16T00:41:03.275Z,2.08
2023-04-16T00:43:31.710Z,1.90
2023-04-16T00:45:59.390Z,1.77
2023-04-16T00:48:31.820Z,1.63
2023-04-16T00:51:00.299Z,2.00
2023-04-16T00:53:27.602Z,2.17
2023-04-16T00:55:56.189Z,2.20
2023-04-16T00:58:25.623Z,2.15
2023-04-16T01:00:52.867Z,2.20
2023-04-16T01:03:20.111Z,2.17
2023-04-16T01:05:49.455Z,2.00
2023-04-16T01:08:17.670Z,2.60
2023-04-16T01:10:45.895Z,2.42
2023-04-16T01:13:12.994Z,2.60
2023-04-16T01:15:41.592Z,2.40
2023-04-16T01:18:15.033Z,2.53
2023-04-16T01:20:43.969Z,2.50
2023-04-16T01:23:11.779Z,2.10
2023-04-16T01:25:39.500Z,2.47
2023-04-16T01:28:07.004Z,2.30
2023-04-16T01:30:34.361Z,2.67
2023-04-16T01:33:01.558Z,2.17
2023-04-16T01:35:29.017Z,2.70
2023-04-16T01:37:57.444Z,2.22
2023-04-16T01:40:24.657Z,2.22
2023-04-16T01:42:51.824Z,2.50
2023-04-16T01:45:19.305Z,2.30
2023-04-16T01:47:46.396Z,1.88
2023-04-16T01:50:13.861Z,2.80
2023-04-16T01:52:40.953Z,2.25
2023-04-16T01:55:10.028Z,2.38
2023-04-16T01:57:36.962Z,2.20
2023-04-16T02:00:05.384Z,2.30
2023-04-16T02:02:32.736Z,1.85
2023-04-16T02:05:00.056Z,1.90
2023-04-16T02:07:27.447Z,1.80
2023-04-16T02:09:54.842Z,1.92
2023-04-16T02:12:23.293Z,2.03
2023-04-16T02:14:50.517Z,1.85
2023-04-16T02:17:17.805Z,1.90
2023-04-16T02:19:45.097Z,2.25
2023-04-16T02:22:12.052Z,2.30
2023-04-16T02:24:39.302Z,2.53
2023-04-16T02:27:06.287Z,2.08
2023-04-16T02:29:34.962Z,2.22
2023-04-16T02:32:02.219Z,1.80
2023-04-16T02:34:29.540Z,2.00
2023-04-16T02:36:58.391Z,1.80
2023-04-16T02:39:25.934Z,1.80
2023-04-16T02:41:53.327Z,1.55
2023-04-16T02:44:20.598Z,1.85
2023-04-16T02:46:49.051Z,1.40
2023-04-16T02:49:16.314Z,1.70
2023-04-16T02:51:43.256Z,1.52
2023-04-16T02:54:10.567Z,1.65
2023-04-16T02:56:37.642Z,1.50
2023-04-16T02:59:05.188Z,1.58
2023-04-16T03:01:32.185Z,2.08
2023-04-16T03:04:01.139Z,1.55
2023-04-16T03:06:28.589Z,1.58
2023-04-16T03:08:55.869Z,1.70
2023-04-16T03:11:23.658Z,1.30
2023-04-16T03:13:51.028Z,1.47
2023-04-16T03:16:18.018Z,1.20
2023-04-16T03:18:45.495Z,1.50
2023-04-16T03:21:13.862Z,1.38
2023-04-16T03:23:41.476Z,1.35
2023-04-16T03:26:08.517Z,1.70
2023-04-16T03:28:35.910Z,1.55
2023-04-16T03:31:03.121Z,1.60
2023-04-16T03:33:30.727Z,1.42
2023-04-16T03:35:58.335Z,1.70
2023-04-16T03:38:26.971Z,1.50
2023-04-16T03:40:53.996Z,1.70
2023-04-16T03:43:21.564Z,1.80
2023-04-16T03:45:48.548Z,1.60
2023-04-16T03:48:16.484Z,1.83
2023-04-16T03:50:46.726Z,2.08
2023-04-16T03:53:14.435Z,2.38
2023-04-16T03:55:42.820Z,1.83
2023-04-16T03:58:10.685Z,1.80
2023-04-16T04:00:37.730Z,1.90
2023-04-16T04:03:05.076Z,1.77
2023-04-16T04:05:35.667Z,1.70
2023-04-16T04:08:03.265Z,2.10
2023-04-16T04:10:32.116Z,1.50
2023-04-16T04:13:01.305Z,1.70
2023-04-16T04:15:28.244Z,1.70
2023-04-16T04:17:56.028Z,1.60
2023-04-16T04:20:23.279Z,1.83
2023-04-16T04:22:51.098Z,1.55
2023-04-16T04:25:18.066Z,1.40
2023-04-16T04:27:45.249Z,1.70
2023-04-16T04:30:13.787Z,1.67
2023-04-16T04:32:41.461Z,2.05
2023-04-16T04:35:09.162Z,1.30
2023-04-16T04:37:36.430Z,2.10
2023-04-16T04:40:03.597Z,2.03
2023-04-16T04:42:30.899Z,1.73
2023-04-16T04:44:57.874Z,1.92
2023-04-16T04:47:27.149Z,1.70
2023-04-16T04:49:54.374Z,2.00
2023-04-16T04:52:21.713Z,2.03
2023-04-16T04:54:48.689Z,2.53
2023-04-16T04:57:15.897Z,2.25
2023-04-16T04:59:42.894Z,2.28
2023-04-16T05:02:10.332Z,2.13
2023-04-16T05:04:39.037Z,2.53
2023-04-16T05:07:07.234Z,2.53
2023-04-16T05:09:34.168Z,2.20
2023-04-16T05:12:01.441Z,2.20
2023-04-16T05:14:28.431Z,2.17
2023-04-16T05:16:56.475Z,2.00
2023-04-16T05:19:23.466Z,1.90
2023-04-16T05:21:52.035Z,2.15
2023-04-16T05:24:20.001Z,2.25
2023-04-16T05:26:47.259Z,1.88
2023-04-16T05:29:14.165Z,2.10
2023-04-16T05:31:41.357Z,1.90
2023-04-16T05:34:08.403Z,1.77
2023-04-16T05:36:35.695Z,1.90
2023-04-16T05:39:04.359Z,1.75
2023-04-16T05:41:31.649Z,1.80
2023-04-16T05:43:58.811Z,2.33
2023-04-16T05:46:26.370Z,1.92
2023-04-16T05:48:53.301Z,1.80
2023-04-16T05:51:23.036Z,1.67
2023-04-16T05:53:50.119Z,1.63
2023-04-16T05:56:18.929Z,1.80
2023-04-16T05:58:45.968Z,1.75
2023-04-16T06:01:14.067Z,1.80
2023-04-16T06:03:41.378Z,1.48
2023-04-16T06:06:09.214Z,1.60
2023-04-16T06:08:36.181Z,1.85
2023-04-16T06:11:03.798Z,1.40
2023-04-16T06:13:32.386Z,1.73
2023-04-16T06:18:26.707Z,1.70
2023-04-16T06:20:54.183Z,1.60
2023-04-16T06:23:21.267Z,1.67
2023-04-16T06:25:48.575Z,1.88
2023-04-16T06:28:15.669Z,2.10
2023-04-16T06:30:44.739Z,1.95
2023-04-16T06:35:39.112Z,2.13
2023-04-16T06:38:06.109Z,2.17
2023-04-16T06:40:34.201Z,2.30
2023-04-16T06:43:01.434Z,2.00
2023-04-16T06:45:28.802Z,1.85
2023-04-16T06:47:59.091Z,2.15
2023-04-16T06:50:28.201Z,3.20
2023-04-16T06:52:55.332Z,3.75
2023-04-16T06:55:22.505Z,2.28
2023-04-16T06:57:49.615Z,1.75
2023-04-16T07:00:17.463Z,1.85
2023-04-16T07:02:44.506Z,1.75
2023-04-16T07:05:13.671Z,2.20
2023-04-16T07:07:40.586Z,2.20
2023-04-16T07:10:09.277Z,1.83
2023-04-16T07:12:36.713Z,2.20
2023-04-16T07:15:05.611Z,1.70
2023-04-16T07:17:32.678Z,2.10
2023-04-16T07:19:59.957Z,2.30
2023-04-16T07:22:28.223Z,2.35
2023-04-16T07:24:55.658Z,1.95
2023-04-16T07:27:22.787Z,2.15
2023-04-16T07:29:50.949Z,1.90
2023-04-16T07:32:18.157Z,2.35
2023-04-16T07:34:45.326Z,3.67
2023-04-16T07:37:12.274Z,2.53
2023-04-16T07:39:43.533Z,2.40
2023-04-16T07:42:10.605Z,2.45
2023-04-16T07:44:37.941Z,2.80
2023-04-16T07:47:05.788Z,2.50
2023-04-16T07:49:33.461Z,1.92
2023-04-16T07:52:00.584Z,1.90
2023-04-16T07:54:29.884Z,1.30
2023-04-16T07:56:58.241Z,1.70
2023-04-16T07:59:26.144Z,1.90
2023-04-16T08:01:54.154Z,1.60
2023-04-16T08:04:25.615Z,1.60
2023-04-16T08:06:53.158Z,1.90
2023-04-16T08:09:21.664Z,1.50
2023-04-16T08:11:49.819Z,1.70
2023-04-16T08:14:18.600Z,1.33
2023-04-16T08:16:45.545Z,1.77
2023-04-16T08:19:13.020Z,1.95
2023-04-16T08:21:40.440Z,1.75
2023-04-16T08:24:07.944Z,1.60
2023-04-16T08:26:34.888Z,2.15
2023-04-16T08:29:02.236Z,2.83
2023-04-16T08:31:31.309Z,1.50
2023-04-16T08:33:58.497Z,1.70
2023-04-16T08:36:25.668Z,1.40
2023-04-16T08:38:52.978Z,1.75
2023-04-16T08:41:22.410Z,1.60
2023-04-16T08:43:51.857Z,1.50
2023-04-16T08:46:22.701Z,1.48
2023-04-16T08:48:55.893Z,1.65
2023-04-16T08:51:24.146Z,1.55
2023-04-16T08:53:53.496Z,2.08
2023-04-16T08:56:21.523Z,1.65
2023-04-16T08:58:51.192Z,1.90
2023-04-16T09:01:19.741Z,1.70
2023-04-16T09:06:17.496Z,1.30
2023-04-16T09:08:45.793Z,1.75
2023-04-16T09:11:14.319Z,1.70
2023-04-16T09:13:41.762Z,1.55
2023-04-16T09:16:09.525Z,1.55
2023-04-16T09:18:36.902Z,1.58
2023-04-16T09:21:04.826Z,2.15
2023-04-16T09:23:33.600Z,1.77
2023-04-16T09:26:00.569Z,1.45
2023-04-16T09:28:41.597Z,1.92
2023-04-16T09:31:10.172Z,1.90
2023-04-16T09:33:40.496Z,1.60
2023-04-16T09:36:07.766Z,1.70
2023-04-16T09:38:50.533Z,1.73
2023-04-16T09:41:17.797Z,2.05
2023-04-16T09:43:58.398Z,2.00
2023-04-16T09:46:30.302Z,1.60
2023-04-16T09:48:57.842Z,2.17
2023-04-16T09:51:27.032Z,2.20
2023-04-16T09:53:57.250Z,1.60
2023-04-16T09:56:30.357Z,1.67
2023-04-16T09:58:58.556Z,1.80
2023-04-16T10:01:26.023Z,2.07
2023-04-16T10:03:56.099Z,1.52
2023-04-16T10:06:25.451Z,1.80
2023-04-16T10:08:58.197Z,1.70
2023-04-16T10:11:25.897Z,2.55
2023-04-16T10:13:53.495Z,3.53
2023-04-16T10:16:22.308Z,2.10
2023-04-16T10:18:49.828Z,2.05
2023-04-16T10:21:17.089Z,1.70
2023-04-16T10:23:44.300Z,2.53
2023-04-16T10:26:13.474Z,8.23
2023-04-16T10:28:41.689Z,7.22
2023-04-16T10:31:09.749Z,27.98
2023-04-16T10:33:40.730Z,23.20
2023-04-16T10:36:12.445Z,15.32
2023-04-16T10:38:41.138Z,9.02
2023-04-16T10:41:11.550Z,17.92
2023-04-16T10:43:41.973Z,20.02
2023-04-16T10:46:23.007Z,19.08
2023-04-16T10:48:53.489Z,7.35
2023-04-16T10:51:28.994Z,8.00
2023-04-16T10:53:57.439Z,8.63
2023-04-16T10:56:25.556Z,3.30
2023-04-16T10:58:56.093Z,2.03
2023-04-16T11:01:32.445Z,2.75
2023-04-16T11:04:02.222Z,3.10
2023-04-16T11:06:29.952Z,1.35
2023-04-16T11:08:57.305Z,1.95
2023-04-16T11:11:24.221Z,3.13
2023-04-16T11:13:56.432Z,3.53
2023-04-16T11:16:25.030Z,3.22
2023-04-16T11:18:53.505Z,3.53
2023-04-16T11:21:22.406Z,2.58
2023-04-16T11:23:51.420Z,2.30
2023-04-16T11:28:50.808Z,1.80
2023-04-16T11:31:19.561Z,1.70
2023-04-16T11:33:47.114Z,2.10
2023-04-16T11:36:14.277Z,1.98
2023-04-16T11:38:42.909Z,1.70
2023-04-16T11:41:10.941Z,2.17
2023-04-16T11:43:38.475Z,1.60
2023-04-16T11:46:24.250Z,1.90
2023-04-16T11:48:58.341Z,2.38
2023-04-16T11:51:25.349Z,2.25
2023-04-16T11:53:54.078Z,2.60
2023-04-16T11:56:28.469Z,2.07
2023-04-16T11:59:09.686Z,1.95
2023-04-16T12:01:38.104Z,2.25
2023-04-16T12:04:07.898Z,2.47
2023-04-16T12:06:35.254Z,2.45
2023-04-16T12:09:23.976Z,2.03
2023-04-16T12:11:51.173Z,2.55
2023-04-16T12:14:18.632Z,2.70
2023-04-16T12:16:45.682Z,2.28
2023-04-16T12:19:14.612Z,2.15
2023-04-16T12:21:43.197Z,3.13
2023-04-16T12:24:16.220Z,2.00
2023-04-16T12:26:45.232Z,2.13
2023-04-16T12:29:20.641Z,1.80
2023-04-16T12:31:48.452Z,1.73
2023-04-16T12:34:17.699Z,1.88
2023-04-16T12:36:45.088Z,1.75
2023-04-16T12:39:13.789Z,1.98
2023-04-16T12:41:43.071Z,2.13
2023-04-16T12:44:14.679Z,2.00
2023-04-16T12:46:42.795Z,1.98
2023-04-16T12:49:11.448Z,2.08
2023-04-16T12:51:40.769Z,1.88
2023-04-16T12:54:08.129Z,2.42
2023-04-16T12:56:35.876Z,1.98
2023-04-16T12:59:03.582Z,1.80
2023-04-16T13:01:30.959Z,2.00
2023-04-16T13:03:58.518Z,1.50
2023-04-16T13:06:26.283Z,1.55
2023-04-16T13:08:54.840Z,1.90
2023-04-16T13:11:21.941Z,1.63
2023-04-16T13:13:49.246Z,1.40
2023-04-16T13:16:16.449Z,1.35
2023-04-16T13:18:43.854Z,1.55
2023-04-16T13:21:11.457Z,1.70
2023-04-16T13:23:38.755Z,1.57
2023-04-16T13:26:07.141Z,1.60
2023-04-16T13:28:34.422Z,1.75
2023-04-16T13:31:04.277Z,1.42
2023-04-16T13:33:33.205Z,1.10
2023-04-16T13:36:00.142Z,1.10
2023-04-16T13:38:27.503Z,1.50
2023-04-16T13:40:54.463Z,1.65
2023-04-16T13:43:23.219Z,2.38
2023-04-16T13:45:50.301Z,2.65
2023-04-16T13:48:17.943Z,2.53
2023-04-16T13:50:45.329Z,3.05
2023-04-16T13:53:12.812Z,2.40
2023-04-16T13:55:39.952Z,2.60
2023-04-16T13:58:07.354Z,2.97
2023-04-16T14:00:35.994Z,2.63
2023-04-16T14:03:05.870Z,2.80
2023-04-16T14:05:33.075Z,2.45
2023-04-16T14:08:00.450Z,2.53
2023-04-16T14:10:27.541Z,2.80
2023-04-16T14:12:54.846Z,2.70
2023-04-16T14:15:22.056Z,2.70
2023-04-16T14:17:50.881Z,3.20
2023-04-16T14:20:18.029Z,2.45
2023-04-16T14:22:46.623Z,2.47
2023-04-16T14:25:13.876Z,2.85
2023-04-16T14:27:41.583Z,2.95
2023-04-16T14:30:09.232Z,2.70
2023-04-16T14:32:37.114Z,2.83
2023-04-16T14:35:06.611Z,3.20
2023-04-16T14:37:35.920Z,2.85
2023-04-16T14:40:08.271Z,2.70
2023-04-16T14:42:36.645Z,3.20
2023-04-16T14:45:06.552Z,2.53
2023-04-16T14:47:34.377Z,2.65
2023-04-16T14:50:02.204Z,2.67
2023-04-16T14:52:31.571Z,2.40
2023-04-16T14:54:58.547Z,2.10
2023-04-16T14:57:26.740Z,2.28
2023-04-16T14:59:53.825Z,2.20
2023-04-16T15:02:21.828Z,1.73
2023-04-16T15:04:48.900Z,2.28
2023-04-16T15:07:16.299Z,2.00
2023-04-16T15:09:44.775Z,1.95
2023-04-16T15:12:12.047Z,1.83
2023-04-16T15:14:39.089Z,1.50
2023-04-16T15:17:06.653Z,1.30
2023-04-16T15:19:33.848Z,1.20
2023-04-16T15:22:01.528Z,1.40
2023-04-16T15:24:28.764Z,1.40
2023-04-16T15:26:57.393Z,1.30
2023-04-16T15:29:24.346Z,1.70
2023-04-16T15:31:51.649Z,1.70
2023-04-16T15:34:18.592Z,1.77
2023-04-16T15:36:46.313Z,2.22
2023-04-16T15:39:13.426Z,2.63
2023-04-16T15:41:53.619Z,2.53
2023-04-16T15:44:30.204Z,3.70
2023-04-16T15:46:57.800Z,3.17
2023-04-16T15:49:24.886Z,2.90
2023-04-16T15:51:52.385Z,2.85
2023-04-16T15:54:19.363Z,2.72
2023-04-16T15:56:46.867Z,2.50
2023-04-16T15:59:13.837Z,2.80
2023-04-16T16:01:42.507Z,2.60
2023-04-16T16:04:09.933Z,2.35
2023-04-16T16:06:38.151Z,2.30
2023-04-16T16:09:05.334Z,2.22
2023-04-16T16:11:32.794Z,1.80
2023-04-16T16:14:02.997Z,2.00
2023-04-16T16:16:30.997Z,1.90
2023-04-16T16:18:59.364Z,1.95
2023-04-16T16:21:28.662Z,1.80
2023-04-16T16:23:55.618Z,2.20
2023-04-16T16:26:23.080Z,2.15
2023-04-16T16:28:50.009Z,2.38
2023-04-16T16:31:17.445Z,2.40
2023-04-16T16:33:44.551Z,2.20
2023-04-16T16:36:13.705Z,1.80
2023-04-16T16:38:41.210Z,2.30
2023-04-16T16:41:08.629Z,2.08
2023-04-16T16:43:36.770Z,1.90
2023-04-16T16:46:05.045Z,2.47
2023-04-16T16:48:31.878Z,3.07
2023-04-16T16:50:59.238Z,3.25
2023-04-16T16:53:27.542Z,4.35
2023-04-16T16:55:54.749Z,3.35
2023-04-16T16:58:21.899Z,3.42
2023-04-16T17:00:49.314Z,3.47
2023-04-16T17:03:17.169Z,3.17
2023-04-16T17:05:44.678Z,2.38
2023-04-16T17:08:15.001Z,3.05
2023-04-16T17:10:43.841Z,2.75
2023-04-16T17:13:11.487Z,2.92
2023-04-16T17:15:38.670Z,3.30
2023-04-16T17:18:05.817Z,3.20
2023-04-16T17:20:33.852Z,3.60
2023-04-16T17:23:00.844Z,3.50
2023-04-16T17:25:28.085Z,3.28
2023-04-16T17:27:56.466Z,3.80
2023-04-16T17:30:25.943Z,3.35
2023-04-16T17:32:53.226Z,3.13
2023-04-16T17:35:21.185Z,2.42
2023-04-16T17:37:48.147Z,3.33
2023-04-16T17:40:18.134Z,2.78
2023-04-16T17:42:45.542Z,2.80
2023-04-16T17:45:14.246Z,3.08
2023-04-16T17:47:42.630Z,2.67
2023-04-16T17:50:11.264Z,3.03
2023-04-16T17:52:38.655Z,3.15
2023-04-16T17:55:07.684Z,2.88
2023-04-16T17:57:34.658Z,2.60
2023-04-16T18:00:01.949Z,2.95
2023-04-16T18:02:30.629Z,2.30
2023-04-16T18:04:58.077Z,2.65
2023-04-16T18:07:25.183Z,2.38
2023-04-16T18:09:52.383Z,2.45
2023-04-16T18:12:19.402Z,2.55
2023-04-16T18:14:46.752Z,2.90
2023-04-16T18:17:13.822Z,3.90
2023-04-16T18:19:44.792Z,3.33
2023-04-16T18:22:13.289Z,3.00
2023-04-16T18:27:07.711Z,2.58
2023-04-16T18:29:35.017Z,2.85
2023-04-16T18:32:04.105Z,2.95
2023-04-16T18:34:32.322Z,2.60
2023-04-16T18:37:00.850Z,2.22
2023-04-16T18:39:28.126Z,2.40
2023-04-16T18:41:56.179Z,2.70
2023-04-16T18:44:24.385Z,2.70
2023-04-16T18:46:51.352Z,2.72
2023-04-16T18:49:18.670Z,3.30
2023-04-16T18:51:45.536Z,3.08
2023-04-16T18:54:14.111Z,4.13
2023-04-16T18:56:41.348Z,3.30
2023-04-16T18:59:08.705Z,3.40
2023-04-16T19:01:35.756Z,3.05
2023-04-16T19:04:03.589Z,3.28
2023-04-16T19:06:31.876Z,3.10
2023-04-16T19:08:59.098Z,3.47
2023-04-16T19:11:27.533Z,3.60
2023-04-16T19:13:55.025Z,3.53
2023-04-16T19:16:22.044Z,3.40
2023-04-16T19:18:49.468Z,3.47
2023-04-16T19:21:16.699Z,3.60
2023-04-16T19:23:44.172Z,4.18
2023-04-16T19:26:13.341Z,4.43
2023-04-16T19:28:42.612Z,4.65
2023-04-16T19:31:09.760Z,5.60
2023-04-16T19:33:37.303Z,5.00
2023-04-16T19:36:07.206Z,5.07
2023-04-16T19:38:34.406Z,4.68
2023-04-16T19:41:01.442Z,4.70
2023-04-16T19:43:30.755Z,5.07
2023-04-16T19:45:59.624Z,4.68
2023-04-16T19:48:27.174Z,6.60
2023-04-16T19:50:54.170Z,5.20
2023-04-16T19:53:21.814Z,5.43
2023-04-16T19:55:48.903Z,5.03
2023-04-16T19:58:16.257Z,4.60
2023-04-16T20:00:43.676Z,4.60
2023-04-16T20:03:12.382Z,4.55
2023-04-16T20:05:39.374Z,4.25
2023-04-16T20:08:06.811Z,4.32
2023-04-16T20:10:34.055Z,4.00
2023-04-16T20:13:01.361Z,3.83
2023-04-16T20:15:28.295Z,3.80
2023-04-16T20:17:58.431Z,4.18
2023-04-16T20:20:26.751Z,3.55
2023-04-16T20:22:54.003Z,3.35
2023-04-16T20:25:21.692Z,3.70
2023-04-16T20:27:49.121Z,3.70
2023-04-16T20:30:16.407Z,4.20
2023-04-16T20:32:43.986Z,4.43
2023-04-16T20:35:11.581Z,4.20
2023-04-16T20:37:42.176Z,3.97
2023-04-16T20:40:10.710Z,4.45
2023-04-16T20:42:38.175Z,4.20
2023-04-16T20:45:06.182Z,3.70
2023-04-16T20:47:36.201Z,3.85
2023-04-16T20:50:03.718Z,3.97
2023-04-16T20:52:31.045Z,3.97
2023-04-16T20:54:59.314Z,4.13
2023-04-16T20:57:28.112Z,3.75
2023-04-16T20:59:55.131Z,3.58
2023-04-16T21:02:24.315Z,3.65
2023-04-16T21:04:51.569Z,3.47
2023-04-16T21:07:19.003Z,3.97
2023-04-16T21:09:46.260Z,3.60
2023-04-16T21:12:14.873Z,3.75
2023-04-16T21:14:42.550Z,3.30
2023-04-16T21:17:09.816Z,3.53
2023-04-16T21:19:36.797Z,3.45
2023-04-16T21:22:04.142Z,3.38
2023-04-16T21:24:31.860Z,3.63
2023-04-16T21:26:59.188Z,2.95
2023-04-16T21:29:27.893Z,2.70
2023-04-16T21:31:55.596Z,3.13
2023-04-16T21:34:22.579Z,2.78
2023-04-16T21:36:49.862Z,2.90
2023-04-16T21:39:19.715Z,3.03
2023-04-16T21:41:47.091Z,3.75
2023-04-16T21:44:15.178Z,3.83
2023-04-16T21:46:43.944Z,3.58
2023-04-16T21:49:11.061Z,3.92
2023-04-16T21:51:39.334Z,4.72
2023-04-16T21:56:34.460Z,5.13
2023-04-16T21:59:01.380Z,4.68
2023-04-16T22:01:28.797Z,4.28
2023-04-16T22:03:57.249Z,3.90
2023-04-16T22:06:27.147Z,3.60
2023-04-16T22:08:54.001Z,3.58
2023-04-16T22:11:21.361Z,3.40
2023-04-16T22:13:49.455Z,3.10
2023-04-16T22:16:17.051Z,3.20
2023-04-16T22:18:45.149Z,2.90
2023-04-16T22:21:13.842Z,3.05
2023-04-16T22:23:40.980Z,3.55
2023-04-16T22:26:09.040Z,4.25
2023-04-16T22:28:36.030Z,4.20
2023-04-16T22:31:03.299Z,3.30
2023-04-16T22:33:31.038Z,3.17
2023-04-16T22:35:59.725Z,4.33
2023-04-16T22:38:28.111Z,4.60
2023-04-16T22:40:55.494Z,5.13
2023-04-16T22:43:22.696Z,4.03
2023-04-16T22:45:49.842Z,4.05
2023-04-16T22:48:17.326Z,3.75
2023-04-16T22:50:48.717Z,3.78
2023-04-16T22:53:15.808Z,3.55
2023-04-16T22:55:44.817Z,3.50
2023-04-16T22:58:11.739Z,3.90
2023-04-16T23:00:39.249Z,3.80
2023-04-16T23:03:11.351Z,3.75
2023-04-16T23:05:38.638Z,3.83
2023-04-16T23:08:06.071Z,4.03
2023-04-16T23:10:33.360Z,3.90
2023-04-16T23:13:02.038Z,3.83
2023-04-16T23:17:56.142Z,4.00
2023-04-16T23:20:23.779Z,4.03
2023-04-16T23:22:50.845Z,4.10
2023-04-16T23:25:18.361Z,4.32
2023-04-16T23:27:45.335Z,4.22
2023-04-16T23:30:14.583Z,4.40
2023-04-16T23:35:09.782Z,4.10
2023-04-16T23:37:36.731Z,4.05
2023-04-16T23:40:05.277Z,4.97
2023-04-16T23:42:32.333Z,4.53
2023-04-16T23:44:59.616Z,4.28
2023-04-16T23:47:27.993Z,4.35
2023-04-16T23:49:55.193Z,5.15
2023-04-16T23:52:22.084Z,4.60
2023-04-16T23:54:49.399Z,4.65
2023-04-16T23:57:16.391Z,4.63
2023-04-16T23:59:43.775Z,5.03
